Accueil
METAR-TAF:

METAR-TAF

Aéroports :

Incirlik Air Base

Incirlik, Turquie

latitude: 37-00N, longitude: 035-25E, altitude: 73 m

Observation

Le bulletin a été fait il y a 36 minutes, à 02:20 UTC
Vent 4 kt de nord/nord-est
Température 24°C
Humidité 83%
Pression 1004 hPa
Visibilité 10 km ou plus
Quelques nuages à une hauteur de 3500 ft

METAR: LTAG 200220Z 03004KT 9999 FEW035 24/21 Q1004 NOSIG

Heure: 05:56 (02:56 UTC)

Prévision

Le bulletin a été fait il y a 4 heures et 16 minutes, à 22:40 UTC
Prévision valable du 20 à 00 UTC au 20 à 24 UTC
Vent 2 kt de direction variable
Visibilité 10 km ou plus
Quelques nuages à une hauteur de 3500 ft
Evoluant progressivement
du 20 à 10 UTC au 20 à 11 UTC
Vent 12 kt de sud/sud-ouest

TAF: LTAG 192240Z 2000/2024 VRB02KT 9999 FEW035 BECMG 2010/2011 20012KT

Observations et prévisions météorologiques de plus de 4000 aéroports (messages METAR et TAF).

Les stations disponibles sont représentées par des disques jaunes et rouges sur la carte.

Passer la souris dessus pour voir le nom de la station.

Cliquer dessus pour voir les observations et prévisions météorologiques.

Pour changer de carte: cliquez sur les boutons verts avec une croix noire pour zoomer, sur le bouton vert avec un tiret pour effectuer un zoom arrière, ou sur les flèches vertes pour les cartes adjacentes.


METAR-TAF: